Time;durP1;ratioP1;P1;durP2;ratioP2;P2;SDS_P1;SDS_P2;PMS_P1;PMS_P2;Temp;Humidity;BMP_temperature;BMP_pressure;BME280_temperature;BME280_humidity;BME280_pressure;Samples;Min_cycle;Max_cycle;Signal;HPM_P1;HPM_P2
2021/11/20 00:00:22;;;;;;;17.20;8.60;;;;;;;12.24;87.05;102068.78;5022201;28;20504;-75
2021/11/20 00:02:48;;;;;;;12.97;7.90;;;;;;;12.40;86.42;102065.66;5038944;28;20210;-76
2021/11/20 00:05:16;;;;;;;12.33;7.53;;;;;;;12.30;87.01;102066.31;5039496;28;20490;-75
2021/11/20 00:07:41;;;;;;;18.27;8.03;;;;;;;12.33;86.35;102060.28;5039093;28;20548;-74
2021/11/20 00:10:09;;;;;;;18.50;7.83;;;;;;;12.64;85.21;102069.72;5021549;28;20429;-74
2021/11/20 00:12:37;;;;;;;14.13;7.60;;;;;;;12.65;84.78;102066.25;5039203;28;20170;-75
2021/11/20 00:15:05;;;;;;;12.80;8.20;;;;;;;12.32;85.93;102062.00;5038596;28;20508;-74
2021/11/20 00:17:30;;;;;;;12.43;8.30;;;;;;;12.59;85.69;102060.88;5038651;28;20425;-75
2021/11/20 00:19:56;;;;;;;14.17;8.30;;;;;;;12.25;86.17;102053.13;5038762;28;20466;-74
2021/11/20 00:22:29;;;;;;;18.70;7.63;;;;;;;12.16;87.22;102057.25;5038429;28;20206;-74
2021/11/20 00:24:59;;;;;;;14.80;7.60;;;;;;;12.12;87.43;102056.28;5038578;28;20170;-74
2021/11/20 00:27:32;;;;;;;15.37;8.33;;;;;;;12.24;86.63;102053.94;5038592;28;20449;-75
2021/11/20 00:30:01;;;;;;;16.10;7.53;;;;;;;11.64;89.53;102057.66;5038353;28;20413;-75
2021/11/20 00:32:31;;;;;;;13.97;7.73;;;;;;;12.01;87.88;102056.00;5038524;28;20409;-74
2021/11/20 00:35:02;;;;;;;12.40;9.53;;;;;;;12.08;88.49;102052.72;5021646;28;20434;-74
2021/11/20 00:37:29;;;;;;;21.03;8.60;;;;;;;11.98;88.46;102053.34;5021205;28;20417;-74
2021/11/20 00:39:55;;;;;;;11.90;7.93;;;;;;;12.19;87.39;102052.09;5038130;28;20722;-74
2021/11/20 00:42:20;;;;;;;13.13;7.60;;;;;;;11.91;88.84;102054.00;5038292;28;20543;-74
2021/11/20 00:44:46;;;;;;;14.87;8.13;;;;;;;12.41;86.29;102056.97;5038186;28;20531;-74
2021/11/20 00:47:12;;;;;;;12.33;7.70;;;;;;;12.43;86.94;102051.78;5038199;28;20181;-75
2021/11/20 00:49:38;;;;;;;18.07;9.93;;;;;;;12.15;87.60;102048.53;5038539;28;20433;-75
2021/11/20 00:52:04;;;;;;;24.23;10.57;;;;;;;12.19;87.41;102046.84;5037959;28;20237;-74
2021/11/20 00:54:29;;;;;;;14.67;8.30;;;;;;;12.16;87.84;102047.66;5038123;28;20433;-74
2021/11/20 00:56:55;;;;;;;22.53;8.13;;;;;;;12.10;87.31;102048.41;5038527;28;20412;-74
2021/11/20 00:59:21;;;;;;;14.93;7.20;;;;;;;12.36;86.73;102050.75;5038070;28;20189;-74
2021/11/20 01:01:50;;;;;;;12.80;7.73;;;;;;;12.32;86.90;102048.03;5038046;28;20216;-74
2021/11/20 01:04:17;;;;;;;15.43;7.90;;;;;;;12.20;86.14;102043.41;5038422;28;20180;-74
2021/11/20 01:06:43;;;;;;;15.83;9.10;;;;;;;12.09;87.20;102050.97;5038124;28;20737;-75
2021/11/20 01:09:13;;;;;;;11.73;8.40;;;;;;;12.24;86.69;102055.69;5037946;28;20421;-74
2021/11/20 01:11:43;;;;;;;15.87;8.47;;;;;;;12.71;84.67;102049.81;5038149;28;20427;-74
2021/11/20 01:14:11;;;;;;;18.57;7.40;;;;;;;12.21;86.82;102040.81;5020637;28;20471;-75
2021/11/20 01:16:37;;;;;;;22.27;8.00;;;;;;;12.07;87.19;102043.09;5020731;28;20413;-75
2021/11/20 01:19:03;;;;;;;17.70;8.63;;;;;;;12.39;86.67;102042.97;5021162;28;20710;-75
2021/11/20 01:21:30;;;;;;;13.47;9.57;;;;;;;12.25;86.01;102041.78;5037693;28;20877;-75
2021/11/20 01:23:56;;;;;;;13.70;9.17;;;;;;;11.96;87.93;102039.31;5038040;28;20396;-75
2021/11/20 01:26:22;;;;;;;13.40;7.60;;;;;;;12.15;87.64;102047.63;5040046;28;20479;-76
2021/11/20 01:28:50;;;;;;;15.70;8.33;;;;;;;12.41;86.22;102038.69;5038033;28;20261;-74
2021/11/20 01:31:17;;;;;;;18.17;8.13;;;;;;;12.26;86.74;102036.59;5039482;28;20696;-74
2021/11/20 01:33:44;;;;;;;17.03;8.40;;;;;;;12.34;85.82;102031.53;5042138;28;20392;-74
2021/11/20 01:36:11;;;;;;;20.20;9.90;;;;;;;12.07;87.07;102034.38;5041676;28;20431;-75
2021/11/20 01:38:37;;;;;;;16.57;8.97;;;;;;;12.32;86.86;102028.00;5041538;28;20432;-75
2021/11/20 01:41:03;;;;;;;13.50;8.70;;;;;;;11.93;87.55;102032.28;5041631;28;20388;-75
2021/11/20 01:43:29;;;;;;;12.10;8.60;;;;;;;12.37;86.93;102033.34;5041333;28;20438;-75
2021/11/20 01:45:58;;;;;;;13.73;8.03;;;;;;;12.40;86.67;102021.22;5024064;28;20691;-75
2021/11/20 01:48:45;;;;;;;15.33;8.80;;;;;;;11.99;88.61;102031.59;5041789;28;20456;-76
2021/11/20 01:51:22;;;;;;;14.37;9.20;;;;;;;11.80;89.00;102032.81;5023605;28;20400;-75
2021/11/20 01:53:56;;;;;;;21.33;9.87;;;;;;;12.00;88.19;102024.63;5041347;28;20420;-73
2021/11/20 01:56:30;;;;;;;11.30;8.67;;;;;;;11.70;89.42;102025.59;5041245;28;20459;-75
2021/11/20 01:59:04;;;;;;;15.03;8.90;;;;;;;12.21;87.68;102024.25;5024112;28;20735;-75
2021/11/20 02:01:36;;;;;;;16.67;9.90;;;;;;;12.36;85.68;102016.75;5023794;28;20412;-74
2021/11/20 02:04:33;;;;;;;28.83;11.37;;;;;;;11.95;87.90;102017.56;5023958;28;20634;-74
2021/11/20 02:07:10;;;;;;;19.33;9.87;;;;;;;11.88;89.05;102019.94;5023712;28;20421;-74
2021/11/20 02:10:03;;;;;;;15.00;9.30;;;;;;;12.54;86.16;102031.09;5024035;28;20694;-75
2021/11/20 02:12:37;;;;;;;23.03;9.90;;;;;;;11.98;88.70;102019.34;5040730;28;20431;-74
2021/11/20 02:15:06;;;;;;;12.77;9.53;;;;;;;12.19;88.30;102025.94;5023840;28;20791;-75
2021/11/20 02:17:42;;;;;;;18.47;9.93;;;;;;;12.12;87.41;102022.28;5023735;28;20432;-74
2021/11/20 02:20:14;;;;;;;9.03;7.03;;;;;;;14.26;84.82;101994.13;5040796;28;20395;-60
2021/11/20 02:22:40;;;;;;;12.63;8.13;;;;;;;14.26;78.76;101999.38;5023213;28;20449;-58
2021/11/20 02:25:05;;;;;;;12.00;8.30;;;;;;;14.13;81.54;101997.44;5040760;28;20409;-60
2021/11/20 02:27:36;;;;;;;10.17;8.33;;;;;;;13.45;80.42;101998.94;5041328;28;20212;-73
2021/11/20 02:30:28;;;;;;;16.83;8.37;;;;;;;12.60;84.36;101999.84;5040691;28;20510;-73
2021/11/20 02:33:04;;;;;;;12.47;8.87;;;;;;;12.57;85.18;102002.38;5040637;28;20392;-73
2021/11/20 02:35:34;;;;;;;13.50;8.83;;;;;;;12.51;84.57;102002.28;5040682;28;20397;-73
2021/11/20 02:38:01;;;;;;;14.10;8.70;;;;;;;12.57;84.88;102002.38;5040571;28;20499;-72
2021/11/20 02:40:27;;;;;;;17.17;9.03;;;;;;;12.50;84.82;102005.72;5040618;28;20410;-73
2021/11/20 02:42:54;;;;;;;17.03;9.30;;;;;;;11.97;86.95;102001.91;5022619;28;20468;-72
2021/11/20 02:45:32;;;;;;;12.10;9.03;;;;;;;12.05;87.50;102009.94;5040954;28;20390;-72
2021/11/20 02:47:58;;;;;;;13.80;9.10;;;;;;;12.05;86.59;102008.19;5040493;28;20416;-73
2021/11/20 02:50:32;;;;;;;16.37;9.67;;;;;;;11.99;86.89;102002.84;5040329;28;20501;-73
2021/11/20 02:52:57;;;;;;;15.47;9.00;;;;;;;12.22;85.94;101997.28;5052183;28;20460;-73
2021/11/20 02:55:23;;;;;;;14.93;9.20;;;;;;;12.07;86.67;102000.38;5059324;28;20427;-73
2021/11/20 02:57:48;;;;;;;17.90;9.40;;;;;;;12.19;85.84;102005.03;5060721;28;20509;-74
2021/11/20 03:00:16;;;;;;;13.03;8.60;;;;;;;12.45;84.32;101992.56;5060240;28;20166;-73
2021/11/20 03:02:41;;;;;;;14.10;8.53;;;;;;;12.14;85.90;101989.25;5059978;28;20205;-74
2021/11/20 03:05:08;;;;;;;15.27;8.10;;;;;;;12.19;85.48;101984.09;5060597;28;20394;-74
2021/11/20 03:07:33;;;;;;;23.87;9.80;;;;;;;12.42;85.09;101976.78;5059929;28;20532;-74
2021/11/20 03:09:58;;;;;;;14.40;9.00;;;;;;;12.54;84.51;101986.63;5059953;28;20435;-74
2021/11/20 03:12:24;;;;;;;16.40;9.80;;;;;;;12.76;83.47;101982.75;5060049;28;20167;-72
2021/11/20 03:14:49;;;;;;;14.13;8.97;;;;;;;12.56;83.51;101980.59;5059901;28;20233;-73
2021/11/20 03:17:15;;;;;;;15.73;11.37;;;;;;;12.17;85.59;101980.59;5059977;28;20166;-73
2021/11/20 03:19:44;;;;;;;19.43;9.60;;;;;;;12.69;82.84;101979.13;5060348;28;20165;-73
2021/11/20 03:22:16;;;;;;;13.97;8.63;;;;;;;12.66;83.13;101975.56;5059496;28;20224;-74
2021/11/20 03:24:41;;;;;;;15.53;8.50;;;;;;;12.24;85.04;101972.91;5059868;28;20419;-74
2021/11/20 03:27:07;;;;;;;12.90;8.40;;;;;;;12.24;85.18;101972.03;5059626;28;20741;-73
2021/11/20 03:29:33;;;;;;;19.57;10.97;;;;;;;12.48;83.77;101966.47;5059639;28;20180;-72
2021/11/20 03:31:58;;;;;;;12.17;8.83;;;;;;;12.59;83.11;101964.94;5060109;28;20162;-74
2021/11/20 03:34:27;;;;;;;21.57;10.00;;;;;;;12.25;85.00;101972.06;5059491;28;20208;-73
2021/11/20 03:36:53;;;;;;;20.10;9.93;;;;;;;12.40;83.61;101978.50;5058773;28;20196;-74
2021/11/20 03:39:19;;;;;;;16.33;9.70;;;;;;;12.45;83.40;101972.50;5059888;28;20424;-72
2021/11/20 03:41:44;;;;;;;18.37;11.10;;;;;;;12.09;84.61;101968.22;5059176;28;20447;-73
2021/11/20 03:44:10;;;;;;;17.50;10.33;;;;;;;12.30;83.80;101975.66;5059443;28;20180;-73
2021/11/20 03:46:38;;;;;;;20.83;11.03;;;;;;;12.41;83.57;101973.28;5059568;28;20193;-72
2021/11/20 03:49:04;;;;;;;17.43;11.83;;;;;;;12.23;84.25;101981.63;5059099;28;20733;-74
2021/11/20 03:51:29;;;;;;;13.50;11.10;;;;;;;12.38;84.00;101978.47;5058999;28;20460;-73
2021/11/20 03:53:55;;;;;;;15.70;11.57;;;;;;;12.45;83.49;101972.50;5059112;28;20371;-75
2021/11/20 03:56:21;;;;;;;15.63;11.83;;;;;;;12.08;85.30;101966.47;5058487;28;20165;-70
2021/11/20 03:58:46;;;;;;;20.73;12.80;;;;;;;12.11;84.49;101971.75;5059226;28;20424;-71
2021/11/20 04:01:16;;;;;;;25.80;13.50;;;;;;;12.08;84.96;101970.78;5059287;28;20549;-71
2021/11/20 04:03:42;;;;;;;18.00;12.43;;;;;;;12.06;85.28;101965.53;5058819;28;20194;-71
2021/11/20 04:06:12;;;;;;;25.33;13.40;;;;;;;12.44;83.41;101968.13;5058885;28;20454;-71
2021/11/20 04:08:48;;;;;;;19.93;13.13;;;;;;;12.09;85.25;101957.75;5058742;28;20450;-71
2021/11/20 04:11:17;;;;;;;22.00;13.17;;;;;;;12.10;85.02;101964.75;5057945;28;20792;-72
2021/11/20 04:13:43;;;;;;;29.53;14.10;;;;;;;12.40;84.22;101965.41;5058775;28;20431;-71
2021/11/20 04:16:12;;;;;;;21.63;14.23;;;;;;;12.30;83.71;101953.88;5058673;28;20424;-71
2021/11/20 04:18:38;;;;;;;24.10;14.10;;;;;;;12.04;85.56;101954.19;5059176;28;20415;-71
2021/11/20 04:21:04;;;;;;;26.30;14.37;;;;;;;12.03;85.29;101956.72;5058564;28;20472;-72
2021/11/20 04:23:30;;;;;;;25.40;14.63;;;;;;;12.35;84.25;101947.00;5058508;28;20474;-73
2021/11/20 04:25:55;;;;;;;24.40;13.57;;;;;;;12.00;85.63;101944.50;5059001;28;20413;-71
2021/11/20 04:28:20;;;;;;;25.00;14.97;;;;;;;12.20;84.89;101944.94;5058777;28;20429;-71
2021/11/20 04:30:47;;;;;;;24.13;16.23;;;;;;;11.91;85.50;101941.63;5057653;28;20196;-71
2021/11/20 04:33:13;;;;;;;25.87;14.87;;;;;;;12.41;83.94;101941.91;5058639;28;20166;-71
2021/11/20 04:35:39;;;;;;;21.10;14.20;;;;;;;12.22;83.89;101943.25;5057662;28;20638;-73
2021/11/20 04:38:06;;;;;;;22.43;14.13;;;;;;;12.28;83.91;101940.75;5058634;28;20390;-74
2021/11/20 04:40:32;;;;;;;22.37;14.73;;;;;;;12.60;82.82;101934.47;5059050;28;20173;-72
2021/11/20 04:42:58;;;;;;;32.93;22.13;;;;;;;12.51;82.95;101936.88;5058032;28;20699;-70
2021/11/20 04:45:25;;;;;;;28.70;13.97;;;;;;;12.68;82.69;101934.59;5058420;28;20503;-73
2021/11/20 04:47:50;;;;;;;22.60;11.83;;;;;;;12.33;84.28;101940.88;5058799;28;20252;-72
2021/11/20 04:50:18;;;;;;;18.93;11.90;;;;;;;12.09;84.22;101931.63;5058021;28;20402;-71
2021/11/20 04:52:43;;;;;;;21.87;11.50;;;;;;;12.48;82.68;101928.97;5057682;28;20222;-72
2021/11/20 04:55:10;;;;;;;20.90;11.87;;;;;;;12.21;84.37;101922.28;5058459;28;20419;-72
2021/11/20 04:57:35;;;;;;;22.23;12.40;;;;;;;12.55;82.74;101920.41;5058012;28;20524;-72
2021/11/20 05:00:04;;;;;;;18.27;13.00;;;;;;;12.66;82.68;101918.00;5058261;28;20399;-71
2021/11/20 05:02:30;;;;;;;24.83;12.93;;;;;;;12.01;84.33;101919.22;5058303;28;20468;-73
2021/11/20 05:04:55;;;;;;;19.60;13.10;;;;;;;12.18;84.53;101915.25;5057663;28;20423;-73
2021/11/20 05:07:20;;;;;;;20.67;13.37;;;;;;;12.19;84.90;101911.81;5062981;28;20668;-73
2021/11/20 05:09:46;;;;;;;25.80;14.00;;;;;;;11.96;85.32;101920.00;5064824;28;20207;-72
2021/11/20 05:12:11;;;;;;;22.17;12.97;;;;;;;12.06;85.08;101915.00;5064522;28;20185;-72
2021/11/20 05:14:37;;;;;;;27.60;14.17;;;;;;;12.09;84.88;101918.53;5064701;28;20182;-74
2021/11/20 05:17:03;;;;;;;26.53;14.27;;;;;;;12.27;84.33;101917.19;5064855;28;20173;-73
2021/11/20 05:19:29;;;;;;;28.33;14.83;;;;;;;12.25;84.13;101916.28;5063822;28;20875;-74
2021/11/20 05:21:54;;;;;;;21.60;13.53;;;;;;;12.44;82.75;101909.72;5064244;28;20467;-70
2021/11/20 05:24:20;;;;;;;28.20;13.80;;;;;;;12.44;84.22;101902.72;5064782;28;20189;-71
2021/11/20 05:26:45;;;;;;;20.23;14.40;;;;;;;12.37;83.35;101900.84;5064531;28;20174;-73
2021/11/20 05:29:23;;;;;;;19.90;13.30;;;;;;;12.17;84.07;101915.25;5064638;28;20180;-71
2021/11/20 05:31:49;;;;;;;17.27;13.07;;;;;;;12.34;83.33;101907.75;5064229;28;20169;-72
2021/11/20 05:34:14;;;;;;;21.60;13.27;;;;;;;12.03;84.41;101899.22;5064367;28;20474;-71
2021/11/20 05:36:40;;;;;;;20.17;12.47;;;;;;;12.06;84.19;101905.41;5064634;28;20173;-72
2021/11/20 05:39:06;;;;;;;23.63;13.60;;;;;;;11.82;85.88;101904.84;5064538;28;20173;-74
2021/11/20 05:41:31;;;;;;;19.37;13.20;;;;;;;11.98;85.41;101898.28;5064092;28;20546;-72
2021/11/20 05:43:58;;;;;;;21.20;13.50;;;;;;;11.85;85.29;101895.31;5064859;28;20394;-71
2021/11/20 05:46:25;;;;;;;22.17;13.50;;;;;;;11.79;85.38;101898.66;5064200;28;20255;-71
2021/11/20 05:48:51;;;;;;;26.73;13.87;;;;;;;11.85;84.69;101892.69;5064381;28;20406;-75
2021/11/20 05:51:17;;;;;;;21.67;13.43;;;;;;;11.63;85.53;101886.97;5061952;28;20581;-75
2021/11/20 05:53:42;;;;;;;23.17;14.20;;;;;;;12.22;83.52;101883.13;5044217;28;20400;-74
2021/11/20 05:56:08;;;;;;;28.03;16.07;;;;;;;11.85;85.57;101886.59;5044359;28;20174;-73
2021/11/20 05:58:34;;;;;;;23.93;13.83;;;;;;;12.24;83.46;101877.91;5044533;28;20170;-74
2021/11/20 06:01:06;;;;;;;18.87;13.87;;;;;;;12.03;83.79;101873.09;5043929;28;20184;-74
2021/11/20 06:03:32;;;;;;;23.43;16.63;;;;;;;12.02;84.19;101876.56;5044662;28;20452;-74
2021/11/20 06:05:57;;;;;;;24.57;15.00;;;;;;;12.14;83.47;101874.22;5026906;28;20398;-72
2021/11/20 06:08:23;;;;;;;17.20;13.73;;;;;;;11.83;84.27;101872.63;5044224;28;20427;-73
2021/11/20 06:10:51;;;;;;;20.23;15.33;;;;;;;12.02;84.76;101877.44;5044929;28;20551;-76
2021/11/20 06:13:17;;;;;;;26.13;13.30;;;;;;;11.80;85.54;101890.00;5044242;28;20193;-76
2021/11/20 06:15:43;;;;;;;20.13;13.60;;;;;;;12.10;83.85;101883.72;5043892;28;20824;-75
2021/11/20 06:18:09;;;;;;;18.90;13.40;;;;;;;11.63;85.45;101880.88;5041345;28;20180;-75
2021/11/20 06:20:36;;;;;;;20.83;13.90;;;;;;;11.71;85.59;101883.69;5040938;28;20395;-75
2021/11/20 06:23:02;;;;;;;25.60;15.07;;;;;;;12.05;83.73;101882.72;5040791;28;20468;-76
2021/11/20 06:25:29;;;;;;;22.87;13.20;;;;;;;11.89;83.96;101888.44;5041112;28;20470;-75
2021/11/20 06:27:54;;;;;;;19.93;13.70;;;;;;;11.84;84.58;101890.97;5040805;28;20463;-75
2021/11/20 06:30:22;;;;;;;20.40;13.80;;;;;;;11.92;84.22;101891.13;5040711;28;20476;-75
2021/11/20 06:32:48;;;;;;;24.57;13.13;;;;;;;11.98;84.29;101904.38;5041254;28;20253;-75
2021/11/20 06:35:16;;;;;;;26.63;13.90;;;;;;;12.19;83.10;101900.44;5040762;28;20426;-74
2021/11/20 06:37:43;;;;;;;20.10;13.70;;;;;;;11.91;83.87;101900.69;5040620;28;20181;-75
2021/11/20 06:40:13;;;;;;;20.93;13.70;;;;;;;11.94;83.57;101899.88;5040838;28;20413;-75
2021/11/20 06:42:38;;;;;;;17.90;14.33;;;;;;;12.00;83.38;101905.28;5040354;28;20435;-74
2021/11/20 06:45:07;;;;;;;22.50;13.23;;;;;;;11.61;84.92;101909.59;5040297;28;20691;-73
2021/11/20 06:47:33;;;;;;;20.17;14.30;;;;;;;11.90;84.39;101909.38;5023438;28;20181;-73
2021/11/20 06:49:59;;;;;;;21.80;13.10;;;;;;;11.62;85.42;101910.44;5040214;28;20440;-73
2021/11/20 06:52:24;;;;;;;16.20;13.70;;;;;;;12.00;83.39;101915.75;5039916;28;20348;-73
2021/11/20 06:54:50;;;;;;;19.60;14.23;;;;;;;11.51;85.58;101914.53;5040403;28;20170;-73
2021/11/20 06:57:26;;;;;;;21.50;15.20;;;;;;;11.69;85.20;101917.63;5039822;28;20174;-73
2021/11/20 07:02:37;;;;;;;23.97;17.40;;;;;;;11.94;84.19;101903.41;5039978;28;20450;-72
2021/11/20 07:05:04;;;;;;;21.37;15.17;;;;;;;11.60;85.10;101901.72;5023040;28;20850;-73
2021/11/20 07:07:33;;;;;;;21.43;14.30;;;;;;;11.56;84.84;101908.59;5022812;28;20425;-73
2021/11/20 07:09:58;;;;;;;23.63;14.37;;;;;;;12.12;83.18;101899.44;5039891;28;20465;-72
2021/11/20 07:12:24;;;;;;;25.43;14.87;;;;;;;12.06;82.27;101904.53;5040119;28;20417;-73
2021/11/20 07:14:49;;;;;;;21.83;13.73;;;;;;;11.84;84.04;101900.50;5039707;28;20182;-73
2021/11/20 07:17:15;;;;;;;19.83;13.77;;;;;;;12.01;82.76;101893.09;5039949;28;20174;-75
2021/11/20 07:19:40;;;;;;;18.40;14.40;;;;;;;12.05;83.25;101894.94;5039983;28;20166;-72
2021/11/20 07:22:05;;;;;;;20.73;13.60;;;;;;;12.06;83.17;101889.72;5039386;28;20233;-71
2021/11/20 07:24:31;;;;;;;19.70;15.30;;;;;;;11.74;84.15;101895.06;5039510;28;20228;-72
2021/11/20 07:26:56;;;;;;;17.27;14.80;;;;;;;11.64;84.37;101895.72;5022697;28;20248;-72
2021/11/20 07:29:22;;;;;;;21.27;14.83;;;;;;;11.62;85.14;101886.94;5022163;28;20590;-71
2021/11/20 07:31:47;;;;;;;20.57;14.10;;;;;;;12.06;82.78;101889.72;5039342;28;20166;-73
2021/11/20 07:34:13;;;;;;;21.30;15.57;;;;;;;11.90;83.19;101885.84;5039952;28;20232;-72
2021/11/20 07:36:40;;;;;;;18.43;14.37;;;;;;;12.28;81.87;101885.84;5039483;28;20196;-72
2021/11/20 07:39:09;;;;;;;18.00;14.70;;;;;;;11.96;83.29;101878.19;5039214;28;20458;-73
2021/11/20 07:41:35;;;;;;;20.87;15.07;;;;;;;11.98;82.39;101878.22;5039687;28;20399;-73
2021/11/20 07:44:00;;;;;;;17.87;13.60;;;;;;;11.92;83.76;101876.34;5039351;28;20507;-75
2021/11/20 07:46:26;;;;;;;19.00;13.47;;;;;;;11.86;83.13;101868.34;5040517;28;20536;-77
2021/11/20 07:48:52;;;;;;;22.13;15.97;;;;;;;11.92;82.79;101867.59;5040120;28;20221;-76
2021/11/20 07:51:18;;;;;;;19.33;14.50;;;;;;;11.67;84.16;101864.44;5024612;28;20429;-75
2021/11/20 07:53:44;;;;;;;20.87;15.37;;;;;;;11.76;83.59;101863.78;5058936;28;20264;-76
2021/11/20 07:56:10;;;;;;;19.67;14.03;;;;;;;11.58;84.20;101865.13;5059736;28;20778;-75
2021/11/20 07:58:37;;;;;;;18.13;14.57;;;;;;;11.91;83.19;101863.25;5059122;28;20424;-74
2021/11/20 08:01:04;;;;;;;19.67;14.20;;;;;;;11.85;83.19;101861.34;5058864;28;20416;-77
2021/11/20 08:03:29;;;;;;;19.67;15.03;;;;;;;11.86;83.61;101857.91;5059248;28;20443;-75
2021/11/20 08:05:55;;;;;;;20.73;13.70;;;;;;;11.91;82.92;101858.00;5058751;28;20412;-75
2021/11/20 08:08:21;;;;;;;17.50;15.00;;;;;;;12.29;81.28;101852.75;5058769;28;20464;-75
2021/11/20 08:10:48;;;;;;;20.87;15.20;;;;;;;11.88;82.99;101863.16;5059351;28;20416;-76
2021/11/20 08:13:13;;;;;;;22.03;14.90;;;;;;;11.88;83.35;101860.53;5057756;28;20260;-76
2021/11/20 08:15:39;;;;;;;17.70;13.73;;;;;;;12.08;82.04;101850.56;5057800;28;20574;-76
2021/11/20 08:18:05;;;;;;;18.77;14.43;;;;;;;11.79;82.76;101849.03;5059037;28;20170;-76
2021/11/20 08:20:34;;;;;;;18.70;14.50;;;;;;;11.50;84.66;101840.56;5057534;28;20182;-76
2021/11/20 08:23:05;;;;;;;18.10;14.53;;;;;;;11.87;82.65;101845.72;5058053;28;20467;-76
2021/11/20 08:25:31;;;;;;;20.77;14.50;;;;;;;11.85;83.14;101837.81;5058465;28;20434;-75
2021/11/20 08:27:57;;;;;;;19.23;13.53;;;;;;;11.94;82.86;101834.56;5058343;28;20420;-74
2021/11/20 08:30:27;;;;;;;16.00;14.10;;;;;;;12.37;80.47;101838.09;5058745;28;20200;-74
2021/11/20 08:32:53;;;;;;;17.43;13.80;;;;;;;12.09;81.62;101828.81;5058069;28;20444;-74
2021/11/20 08:35:19;;;;;;;18.50;14.40;;;;;;;12.34;80.77;101830.19;5057437;28;20710;-75
2021/11/20 08:37:44;;;;;;;17.30;13.47;;;;;;;12.27;80.84;101821.34;5058530;28;20252;-76
2021/11/20 08:40:13;;;;;;;18.73;13.80;;;;;;;11.74;82.76;101832.38;5057681;28;20174;-75
2021/11/20 08:42:40;;;;;;;20.50;14.37;;;;;;;12.10;81.38;101822.72;5058099;28;20215;-75
2021/11/20 08:45:08;;;;;;;18.07;11.90;;;;;;;12.15;80.73;101823.72;5057918;28;20400;-76
2021/11/20 08:47:34;;;;;;;20.90;13.33;;;;;;;12.03;81.91;101815.59;5057257;28;20395;-75
2021/11/20 08:49:59;;;;;;;14.20;12.37;;;;;;;12.12;81.03;101815.78;5057921;28;20501;-75
2021/11/20 08:52:25;;;;;;;15.20;11.47;;;;;;;12.28;80.62;101812.63;5057094;28;20316;-76
2021/11/20 08:54:56;;;;;;;16.97;12.73;;;;;;;12.12;80.67;101814.06;5057872;28;20277;-75
2021/11/20 08:57:22;;;;;;;14.70;12.40;;;;;;;12.23;79.50;101821.22;5058369;28;20229;-76
2021/11/20 08:59:47;;;;;;;15.23;12.43;;;;;;;12.11;80.21;101817.53;5057866;28;20472;-76
2021/11/20 09:02:18;;;;;;;20.40;11.70;;;;;;;12.21;80.63;101810.75;5057726;28;20459;-77
2021/11/20 09:04:58;;;;;;;16.30;11.60;;;;;;;12.30;79.32;101800.47;5058620;28;20219;-76
2021/11/20 09:07:32;;;;;;;14.60;11.10;;;;;;;12.60;78.97;101801.03;5057958;28;20420;-74
2021/11/20 09:10:05;;;;;;;16.70;11.20;;;;;;;12.43;78.73;101804.22;5058065;28;20390;-75
2021/11/20 09:12:44;;;;;;;15.73;11.37;;;;;;;12.21;79.28;101794.19;5057817;28;20440;-75
2021/11/20 09:15:38;;;;;;;14.07;11.17;;;;;;;12.61;77.69;101793.22;5057926;28;20884;-77
2021/11/20 09:18:03;;;;;;;13.23;10.20;;;;;;;12.44;78.47;101800.72;5057818;28;20416;-76
2021/11/20 09:20:31;;;;;;;15.23;10.43;;;;;;;12.71;77.28;101801.22;5057964;28;20857;-77
2021/11/20 09:22:56;;;;;;;12.50;11.20;;;;;;;12.77;77.28;101801.31;5057682;28;20235;-76
2021/11/20 09:25:22;;;;;;;13.87;11.23;;;;;;;12.73;77.75;101803.03;5058462;28;20411;-77
2021/11/20 09:27:49;;;;;;;13.63;10.20;;;;;;;12.97;76.25;101786.88;5057829;28;20442;-78
2021/11/20 09:30:18;;;;;;;13.70;10.63;;;;;;;12.79;76.09;101794.41;5057777;28;20177;-76
2021/11/20 09:32:44;;;;;;;12.23;11.03;;;;;;;13.03;75.77;101791.31;5056754;28;20431;-76
2021/11/20 09:35:10;;;;;;;13.40;11.20;;;;;;;12.71;76.44;101791.63;5058216;28;20404;-76
2021/11/20 09:37:35;;;;;;;16.17;11.03;;;;;;;12.67;76.19;101789.81;5057807;28;20203;-76
2021/11/20 09:40:03;;;;;;;13.20;11.27;;;;;;;13.03;75.68;101786.09;5057307;28;20188;-76
2021/11/20 09:42:48;;;;;;;13.00;10.40;;;;;;;13.14;75.19;101789.75;5057689;28;20247;-77
2021/11/20 09:45:20;;;;;;;17.83;10.53;;;;;;;12.74;77.05;101789.06;5056878;28;20408;-76
2021/11/20 09:47:49;;;;;;;10.83;9.53;;;;;;;12.30;77.52;101797.00;5057679;28;20839;-75
2021/11/20 09:50:30;;;;;;;14.10;11.07;;;;;;;12.63;76.88;101781.03;5056844;28;20796;-75
2021/11/20 09:52:57;;;;;;;11.17;10.07;;;;;;;12.60;77.08;101783.59;5058306;28;20456;-74
2021/11/20 09:55:34;;;;;;;11.47;10.27;;;;;;;12.50;77.30;101781.66;5061651;28;20398;-75
2021/11/20 09:58:08;;;;;;;12.87;9.97;;;;;;;12.95;75.84;101770.25;5061282;28;20435;-74
2021/11/20 10:00:50;;;;;;;10.97;9.87;;;;;;;13.05;74.68;101778.25;5061128;28;20689;-76
2021/11/20 10:03:43;;;;;;;11.23;10.03;;;;;;;12.95;74.64;101769.38;5060978;28;20467;-75
2021/11/20 10:06:33;;;;;;;12.00;10.00;;;;;;;12.52;75.91;101764.28;5060299;28;20408;-74
2021/11/20 10:09:22;;;;;;;15.20;9.83;;;;;;;12.46;76.73;101765.03;5061266;28;20423;-75
2021/11/20 10:12:16;;;;;;;13.37;9.70;;;;;;;12.76;75.02;101762.97;5061308;28;20424;-77
2021/11/20 10:14:46;;;;;;;10.97;8.80;;;;;;;12.88;75.15;101755.31;5061189;28;20419;-77
2021/11/20 10:17:36;;;;;;;10.40;9.30;;;;;;;12.86;75.77;101759.63;5060826;28;20386;-77
2021/11/20 10:20:46;;;;;;;10.87;9.87;;;;;;;13.10;73.98;101753.03;5060983;28;20422;-76
2021/11/20 10:23:26;;;;;;;12.00;10.23;;;;;;;12.87;74.95;101747.44;5038023;28;20719;-76
2021/11/20 10:26:13;;;;;;;13.57;9.90;;;;;;;12.53;76.34;101754.69;5060981;28;20443;-78
2021/11/20 10:28:50;;;;;;;11.33;10.07;;;;;;;12.59;75.92;101752.19;5060185;28;20820;-76
2021/11/20 10:31:33;;;;;;;12.80;10.17;;;;;;;13.02;74.41;101744.19;5060590;28;20419;-76
2021/11/20 10:34:05;;;;;;;9.70;8.90;;;;;;;12.75;75.49;101735.88;5060653;28;20416;-76
2021/11/20 10:36:48;;;;;;;13.00;10.60;;;;;;;12.84;74.86;101742.13;5060648;28;20424;-77
2021/11/20 10:39:22;;;;;;;10.57;9.53;;;;;;;12.76;74.84;101734.16;5060610;28;20507;-77
2021/11/20 10:41:55;;;;;;;11.87;9.93;;;;;;;12.91;74.82;101733.53;5060514;28;20459;-77
2021/11/20 10:44:29;;;;;;;13.77;10.20;;;;;;;12.39;76.20;101733.50;5060530;28;20538;-76
2021/11/20 10:47:12;;;;;;;11.57;10.40;;;;;;;12.29;76.39;101724.63;5060292;28;20817;-77
2021/11/20 10:49:59;;;;;;;13.03;10.50;;;;;;;12.55;75.96;101725.09;5060410;28;20656;-76
2021/11/20 10:52:44;;;;;;;11.60;10.50;;;;;;;12.30;76.79;101723.78;5060385;28;20452;-77
2021/11/20 10:55:42;;;;;;;12.37;10.80;;;;;;;12.37;76.48;101730.88;5061884;28;20444;-76
2021/11/20 10:58:28;;;;;;;12.83;11.00;;;;;;;12.41;76.12;101717.00;5061320;28;20422;-77
2021/11/20 11:00:53;;;;;;;12.47;10.43;;;;;;;12.29;76.65;101717.66;5059841;28;20487;-77
2021/11/20 11:03:35;;;;;;;11.53;10.43;;;;;;;12.52;75.88;101721.56;5059415;28;20467;-75
2021/11/20 11:06:29;;;;;;;11.07;10.07;;;;;;;12.78;74.56;101711.50;5059951;28;20223;-76
2021/11/20 11:09:00;;;;;;;11.47;10.00;;;;;;;12.84;74.18;101703.78;5059970;28;20400;-77
2021/11/20 11:11:35;;;;;;;12.27;10.37;;;;;;;12.91;74.41;101699.50;5059043;28;20688;-77
2021/11/20 11:14:00;;;;;;;11.00;9.90;;;;;;;13.20;72.76;101680.72;5060292;28;20802;-77
2021/11/20 11:17:15;;;;;;;13.40;9.33;;;;;;;12.97;74.43;101684.78;5059950;28;20416;-76
2021/11/20 11:19:48;;;;;;;10.90;8.90;;;;;;;12.84;74.78;101674.09;5014819;28;20204;-74
2021/11/20 11:22:26;;;;;;;11.93;9.37;;;;;;;12.53;74.84;101670.97;5058805;28;20517;-76
2021/11/20 11:25:24;;;;;;;10.67;9.70;;;;;;;12.41;75.13;101667.31;5059811;28;20481;-75